createdAt,value
2018-03-26T00:00:08.408Z,37.88
2018-03-26T00:02:36.377Z,37.22
2018-03-26T00:05:04.404Z,38.10
2018-03-26T00:07:33.094Z,38.67
2018-03-26T00:10:00.996Z,39.17
2018-03-26T00:12:28.921Z,39.17
2018-03-26T00:14:56.832Z,39.88
2018-03-26T00:17:24.802Z,39.40
2018-03-26T00:19:52.672Z,39.78
2018-03-26T00:22:20.496Z,39.05
2018-03-26T00:24:48.508Z,40.03
2018-03-26T00:27:16.630Z,39.03
2018-03-26T00:29:44.497Z,39.33
2018-03-26T00:32:12.512Z,41.22
2018-03-26T00:34:40.444Z,44.88
2018-03-26T00:37:08.275Z,46.92
2018-03-26T00:39:36.897Z,47.83
2018-03-26T00:42:04.906Z,43.45
2018-03-26T00:44:34.500Z,47.00
2018-03-26T00:47:04.320Z,43.30
2018-03-26T00:49:32.239Z,43.55
2018-03-26T00:52:00.121Z,42.30
2018-03-26T00:54:28.010Z,41.75
2018-03-26T00:56:56.251Z,42.10
2018-03-26T00:59:24.115Z,41.00
2018-03-26T01:01:52.021Z,42.80
2018-03-26T01:04:20.056Z,42.30
2018-03-26T01:06:48.007Z,42.83
2018-03-26T01:09:15.921Z,42.25
2018-03-26T01:11:43.883Z,41.45
2018-03-26T01:14:11.808Z,40.15
2018-03-26T01:16:39.687Z,40.50
2018-03-26T01:19:07.695Z,40.17
2018-03-26T01:21:35.663Z,39.95
2018-03-26T01:24:03.629Z,41.08
2018-03-26T01:26:31.704Z,40.17
2018-03-26T01:28:59.671Z,40.08
2018-03-26T01:31:27.466Z,39.65
2018-03-26T01:33:56.062Z,38.50
2018-03-26T01:36:23.982Z,37.88
2018-03-26T01:38:51.849Z,37.45
2018-03-26T01:41:19.819Z,38.45
2018-03-26T01:43:47.736Z,38.17
2018-03-26T01:46:15.672Z,37.67
2018-03-26T01:48:43.773Z,37.90
2018-03-26T01:51:11.693Z,37.58
2018-03-26T01:53:39.628Z,38.25
2018-03-26T01:56:07.642Z,37.80
2018-03-26T02:01:10.330Z,38.22
2018-03-26T02:03:38.289Z,38.78
2018-03-26T02:06:06.134Z,42.53
2018-03-26T02:08:34.122Z,39.85
2018-03-26T02:11:02.091Z,39.17
2018-03-26T02:13:30.060Z,39.03
2018-03-26T02:15:58.033Z,39.58
2018-03-26T02:18:25.912Z,40.08
2018-03-26T02:20:54.582Z,40.50
2018-03-26T02:23:22.455Z,40.30
2018-03-26T02:25:50.413Z,39.78
2018-03-26T02:28:18.341Z,40.17
2018-03-26T02:30:46.234Z,39.10
2018-03-26T02:33:14.113Z,38.45
2018-03-26T02:35:41.880Z,38.22
2018-03-26T02:38:09.743Z,38.13
2018-03-26T02:40:37.569Z,36.78
2018-03-26T02:43:05.383Z,35.63
2018-03-26T02:45:33.243Z,34.80
2018-03-26T02:48:01.048Z,36.45
2018-03-26T02:50:28.911Z,34.92
2018-03-26T02:52:56.727Z,34.95
2018-03-26T02:55:24.709Z,35.33
2018-03-26T02:57:52.674Z,36.95
2018-03-26T03:00:20.542Z,35.97
2018-03-26T03:02:48.372Z,37.95
2018-03-26T03:05:16.226Z,38.50
2018-03-26T03:07:44.134Z,42.97
2018-03-26T03:10:11.998Z,40.78
2018-03-26T03:12:39.983Z,43.38
2018-03-26T03:15:09.596Z,39.10
2018-03-26T03:17:38.260Z,38.97
2018-03-26T03:20:06.122Z,41.17
2018-03-26T03:22:34.027Z,41.75
2018-03-26T03:25:02.688Z,39.42
2018-03-26T03:27:31.335Z,41.67
2018-03-26T03:29:59.435Z,40.65
2018-03-26T03:32:27.402Z,42.05
2018-03-26T03:34:55.268Z,39.25
2018-03-26T03:37:23.241Z,38.78
2018-03-26T03:39:51.209Z,40.45
2018-03-26T03:42:19.179Z,38.00
2018-03-26T03:44:47.011Z,42.15
2018-03-26T03:47:14.907Z,38.75
2018-03-26T03:49:42.846Z,38.58
2018-03-26T03:52:10.944Z,38.10
2018-03-26T03:54:38.940Z,36.63
2018-03-26T03:57:07.700Z,35.60
2018-03-26T03:59:57.660Z,36.42
2018-03-26T04:02:25.652Z,36.28
2018-03-26T04:04:53.518Z,37.70
2018-03-26T04:07:21.345Z,36.55
2018-03-26T04:09:49.252Z,37.78
2018-03-26T04:12:17.114Z,36.85
2018-03-26T04:14:45.084Z,37.28
2018-03-26T04:17:12.954Z,36.72
2018-03-26T04:19:40.827Z,35.90
2018-03-26T04:22:09.499Z,35.85
2018-03-26T04:24:37.419Z,37.72
2018-03-26T04:27:05.336Z,36.10
2018-03-26T04:29:33.308Z,37.90
2018-03-26T04:32:02.020Z,37.28
2018-03-26T04:34:30.675Z,35.88
2018-03-26T04:36:58.561Z,37.35
2018-03-26T04:39:26.391Z,36.42
2018-03-26T04:41:54.231Z,36.72
2018-03-26T04:44:22.379Z,41.30
2018-03-26T04:46:50.337Z,37.30
2018-03-26T04:49:18.995Z,33.57
2018-03-26T04:51:46.973Z,36.17
2018-03-26T04:54:15.095Z,36.10
2018-03-26T04:56:43.006Z,36.80
2018-03-26T04:59:10.786Z,36.45
2018-03-26T05:01:38.610Z,37.95
2018-03-26T05:04:06.508Z,34.25
2018-03-26T05:06:34.367Z,37.15
2018-03-26T05:09:02.194Z,37.35
2018-03-26T05:11:30.070Z,37.28
2018-03-26T05:13:57.862Z,38.40
2018-03-26T05:16:25.651Z,39.25
2018-03-26T05:18:54.226Z,48.05
2018-03-26T05:21:22.996Z,38.53
2018-03-26T05:23:50.877Z,38.35
2018-03-26T05:26:18.732Z,36.55
2018-03-26T05:28:46.596Z,37.45
2018-03-26T05:31:14.459Z,36.97
2018-03-26T05:33:42.322Z,37.30
2018-03-26T05:36:10.190Z,38.13
2018-03-26T05:38:38.055Z,38.75
2018-03-26T05:41:07.416Z,39.80
2018-03-26T05:43:35.322Z,39.70
2018-03-26T05:46:03.183Z,36.25
2018-03-26T05:48:30.989Z,35.35
2018-03-26T05:50:59.638Z,37.45
2018-03-26T05:53:27.503Z,34.78
2018-03-26T05:55:55.532Z,36.78
2018-03-26T05:58:23.491Z,37.15
2018-03-26T06:00:51.288Z,38.25
2018-03-26T06:03:19.239Z,38.28
2018-03-26T06:05:47.018Z,36.90
2018-03-26T06:08:14.879Z,36.83
2018-03-26T06:10:42.980Z,38.15
2018-03-26T06:13:11.774Z,37.85
2018-03-26T06:15:41.264Z,36.97
2018-03-26T06:18:09.341Z,37.17
2018-03-26T06:20:37.624Z,37.35
2018-03-26T06:23:05.787Z,37.03
2018-03-26T06:25:33.856Z,37.28
2018-03-26T06:28:02.038Z,38.33
2018-03-26T06:30:30.163Z,37.83
2018-03-26T06:32:58.480Z,38.35
2018-03-26T06:35:26.411Z,39.10
2018-03-26T06:37:56.336Z,40.42
2018-03-26T06:40:24.441Z,42.90
2018-03-26T06:42:52.509Z,39.60
2018-03-26T06:45:20.477Z,40.45
2018-03-26T06:47:48.300Z,40.88
2018-03-26T06:50:16.104Z,41.17
2018-03-26T06:52:43.996Z,41.50
2018-03-26T06:55:11.869Z,40.88
2018-03-26T06:57:40.698Z,40.25
2018-03-26T07:00:08.609Z,40.92
2018-03-26T07:02:37.241Z,40.70
2018-03-26T07:05:05.059Z,42.90
2018-03-26T07:07:33.659Z,44.75
2018-03-26T07:10:01.455Z,43.55
2018-03-26T07:12:29.307Z,43.22
2018-03-26T07:14:57.217Z,42.15
2018-03-26T07:17:25.331Z,42.22
2018-03-26T07:19:53.124Z,42.60
2018-03-26T07:22:20.936Z,43.80
2018-03-26T07:24:49.089Z,42.55
2018-03-26T07:27:17.058Z,43.90
2018-03-26T07:29:46.463Z,45.00
2018-03-26T07:32:14.325Z,44.95
2018-03-26T07:34:42.298Z,44.05
2018-03-26T07:37:10.161Z,45.85
2018-03-26T07:39:38.951Z,44.95
2018-03-26T07:42:06.814Z,45.50
2018-03-26T07:44:34.783Z,49.30
2018-03-26T07:47:02.592Z,49.30
2018-03-26T07:49:30.431Z,49.03
2018-03-26T07:51:58.489Z,47.25
2018-03-26T07:54:27.169Z,46.28
2018-03-26T07:56:54.962Z,46.80
2018-03-26T07:59:23.574Z,45.17
2018-03-26T08:01:51.385Z,45.78
2018-03-26T08:04:19.200Z,43.67
2018-03-26T08:06:47.114Z,45.08
2018-03-26T08:09:14.932Z,45.72
2018-03-26T08:11:42.718Z,45.67
2018-03-26T08:14:10.874Z,45.12
2018-03-26T08:16:38.706Z,44.65
2018-03-26T08:19:07.430Z,46.45
2018-03-26T08:21:35.331Z,43.60
2018-03-26T08:24:03.198Z,43.95
2018-03-26T08:26:31.167Z,43.42
2018-03-26T08:29:00.567Z,42.22
2018-03-26T08:31:28.536Z,43.23
2018-03-26T08:33:56.402Z,43.38
2018-03-26T08:36:25.091Z,42.58
2018-03-26T08:38:53.839Z,46.15
2018-03-26T08:41:21.740Z,46.03
2018-03-26T08:43:49.605Z,43.38
2018-03-26T08:46:17.442Z,43.42
2018-03-26T08:48:45.337Z,41.20
2018-03-26T08:51:13.316Z,41.97
2018-03-26T08:53:41.272Z,41.85
2018-03-26T08:56:09.242Z,42.47
2018-03-26T08:58:37.108Z,43.83
2018-03-26T09:01:04.944Z,41.70
2018-03-26T09:03:33.155Z,42.07
2018-03-26T09:06:01.796Z,41.73
2018-03-26T09:08:29.705Z,41.63
2018-03-26T09:10:58.383Z,41.73
2018-03-26T09:13:27.077Z,41.03
2018-03-26T09:15:56.432Z,42.73
2018-03-26T09:18:24.340Z,40.70
2018-03-26T09:20:53.736Z,46.50
2018-03-26T09:23:21.706Z,42.40
2018-03-26T09:25:49.573Z,39.63
2018-03-26T09:28:18.225Z,39.30
2018-03-26T09:30:46.125Z,40.43
2018-03-26T09:33:15.527Z,38.30
2018-03-26T09:35:43.388Z,40.17
2018-03-26T09:38:11.257Z,40.57
2018-03-26T09:40:39.228Z,41.03
2018-03-26T09:43:07.102Z,46.70
2018-03-26T09:45:34.956Z,41.60
2018-03-26T09:48:02.822Z,40.57
2018-03-26T09:50:30.759Z,39.13
2018-03-26T09:52:58.657Z,39.37
2018-03-26T09:55:26.579Z,39.53
2018-03-26T09:57:54.593Z,39.80
2018-03-26T10:00:29.833Z,40.30
2018-03-26T10:02:57.702Z,41.60
2018-03-26T10:05:25.666Z,42.00
2018-03-26T10:07:53.532Z,41.90
2018-03-26T10:10:21.349Z,41.50
2018-03-26T10:12:49.162Z,43.00
2018-03-26T10:15:17.030Z,42.97
2018-03-26T10:17:45.717Z,43.20
2018-03-26T10:20:14.295Z,42.23
2018-03-26T10:22:42.160Z,42.17
2018-03-26T10:25:10.033Z,41.60
2018-03-26T10:27:37.965Z,41.90
2018-03-26T10:30:06.783Z,42.40
2018-03-26T10:32:34.650Z,42.47
2018-03-26T10:35:02.515Z,43.83
2018-03-26T10:37:31.916Z,43.23
2018-03-26T10:39:59.783Z,42.63
2018-03-26T10:42:27.648Z,41.67
2018-03-26T10:44:55.516Z,42.33
2018-03-26T10:47:25.019Z,43.70
2018-03-26T10:49:52.903Z,43.80
2018-03-26T10:52:20.711Z,42.03
2018-03-26T10:54:48.617Z,42.87
2018-03-26T10:57:16.485Z,42.23
2018-03-26T10:59:44.451Z,42.80
2018-03-26T11:02:12.319Z,43.87
2018-03-26T11:04:41.718Z,43.63
2018-03-26T11:07:09.827Z,42.40
2018-03-26T11:09:38.634Z,43.57
2018-03-26T11:12:06.545Z,44.63
2018-03-26T11:14:34.414Z,45.87
2018-03-26T11:17:03.095Z,43.93
2018-03-26T11:19:31.785Z,43.97
2018-03-26T11:22:01.185Z,43.53
2018-03-26T11:24:30.585Z,43.17
2018-03-26T11:26:58.453Z,44.33
2018-03-26T11:29:26.293Z,42.47
2018-03-26T11:31:54.182Z,43.47
2018-03-26T11:34:22.049Z,41.87
2018-03-26T11:36:49.914Z,42.77
2018-03-26T11:39:18.492Z,42.70
2018-03-26T11:41:46.368Z,42.10
2018-03-26T11:44:14.136Z,43.10
2018-03-26T11:46:41.970Z,41.13
2018-03-26T11:49:09.756Z,40.23
2018-03-26T11:51:37.520Z,41.20
2018-03-26T11:54:05.393Z,41.03
2018-03-26T11:56:33.195Z,41.23
2018-03-26T11:59:00.969Z,43.10
2018-03-26T12:01:28.764Z,44.23
2018-03-26T12:03:56.648Z,41.40
2018-03-26T12:06:24.460Z,43.43
2018-03-26T12:08:52.242Z,41.80
2018-03-26T12:11:20.005Z,38.35
2018-03-26T12:13:47.810Z,43.90
2018-03-26T12:16:15.619Z,43.00
2018-03-26T12:18:43.388Z,42.70
2018-03-26T12:21:11.295Z,41.40
2018-03-26T12:23:51.003Z,41.87
2018-03-26T12:26:18.770Z,41.27
2018-03-26T12:28:58.649Z,41.97
2018-03-26T12:31:26.399Z,40.43
2018-03-26T12:34:06.136Z,41.57
2018-03-26T12:36:33.887Z,42.17
2018-03-26T12:39:01.658Z,43.33
2018-03-26T12:41:29.425Z,43.10
2018-03-26T12:43:57.175Z,47.63
2018-03-26T12:46:37.442Z,49.20
2018-03-26T12:49:05.246Z,46.97
2018-03-26T12:51:44.998Z,41.40
2018-03-26T12:54:13.535Z,42.03
2018-03-26T12:56:41.343Z,42.40
2018-03-26T12:59:09.100Z,45.67
2018-03-26T13:01:48.676Z,44.40
2018-03-26T13:04:16.418Z,41.97
2018-03-26T13:06:44.934Z,41.80
2018-03-26T13:09:12.702Z,50.13
2018-03-26T13:11:40.479Z,41.40
2018-03-26T13:14:09.003Z,43.07
2018-03-26T13:16:37.552Z,41.47
2018-03-26T13:19:05.351Z,40.77
2018-03-26T13:21:33.916Z,41.37
2018-03-26T13:24:01.680Z,42.40
2018-03-26T13:26:29.463Z,42.50
2018-03-26T13:28:58.023Z,41.57
2018-03-26T13:31:25.839Z,43.20
2018-03-26T13:33:53.618Z,44.00
2018-03-26T13:36:21.473Z,43.03
2018-03-26T13:38:49.280Z,42.57
2018-03-26T13:41:17.076Z,42.60
2018-03-26T13:43:45.618Z,42.67
2018-03-26T13:46:13.386Z,43.87
2018-03-26T13:48:41.157Z,47.20
2018-03-26T13:51:08.942Z,48.13
2018-03-26T13:53:37.471Z,46.73
2018-03-26T13:56:05.323Z,57.57
2018-03-26T13:58:33.132Z,45.30
2018-03-26T14:01:00.930Z,45.17
2018-03-26T14:03:29.492Z,44.10
2018-03-26T14:05:57.256Z,46.83
2018-03-26T14:08:37.810Z,45.33
2018-03-26T14:11:31.245Z,44.33
2018-03-26T14:14:10.888Z,44.20
2018-03-26T14:16:50.468Z,44.40
2018-03-26T14:19:18.267Z,44.73
2018-03-26T14:21:46.031Z,46.00
2018-03-26T14:24:13.838Z,44.03
2018-03-26T14:26:41.605Z,45.23
2018-03-26T14:29:09.676Z,44.30
2018-03-26T14:31:38.360Z,44.77
2018-03-26T14:34:06.219Z,47.00
2018-03-26T14:36:34.747Z,46.73
2018-03-26T14:39:02.675Z,48.67
2018-03-26T14:41:31.357Z,49.30
2018-03-26T14:43:59.154Z,46.97
2018-03-26T14:46:27.759Z,45.53
2018-03-26T14:48:55.544Z,45.37
2018-03-26T14:51:23.371Z,44.50
2018-03-26T14:53:51.279Z,44.27
2018-03-26T14:56:19.066Z,44.83
2018-03-26T14:58:46.887Z,46.80
2018-03-26T15:01:14.693Z,45.40
2018-03-26T15:03:43.242Z,46.00
2018-03-26T15:06:11.019Z,45.00
2018-03-26T15:08:38.810Z,47.57
2018-03-26T15:11:06.575Z,46.77
2018-03-26T15:13:34.433Z,47.60
2018-03-26T15:16:02.203Z,47.93
2018-03-26T15:18:29.975Z,47.87
2018-03-26T15:20:57.827Z,47.87
2018-03-26T15:23:27.232Z,44.97
2018-03-26T15:25:55.082Z,46.90
2018-03-26T15:28:22.839Z,45.57
2018-03-26T15:30:50.635Z,47.53
2018-03-26T15:33:18.419Z,46.53
2018-03-26T15:35:46.967Z,47.00
2018-03-26T15:38:14.752Z,47.63
2018-03-26T15:40:42.512Z,45.57
2018-03-26T15:43:10.299Z,46.13
2018-03-26T15:45:38.840Z,49.63
2018-03-26T15:48:06.605Z,48.77
2018-03-26T15:50:34.470Z,49.63
2018-03-26T15:53:02.263Z,53.03
2018-03-26T15:55:30.839Z,51.40
2018-03-26T15:57:58.670Z,51.83
2018-03-26T16:00:26.490Z,50.43
2018-03-26T16:02:59.911Z,52.53
2018-03-26T16:05:27.787Z,51.13
2018-03-26T16:07:55.571Z,50.63
2018-03-26T16:10:23.378Z,52.20
2018-03-26T16:12:51.884Z,53.30
2018-03-26T16:15:19.784Z,53.53
2018-03-26T16:17:47.583Z,54.27
2018-03-26T16:20:16.142Z,53.93
2018-03-26T16:22:43.941Z,57.50
2018-03-26T16:25:11.755Z,54.80
2018-03-26T16:27:39.755Z,57.67
2018-03-26T16:30:08.323Z,54.93
2018-03-26T16:32:36.113Z,56.30
2018-03-26T16:35:04.765Z,53.73
2018-03-26T16:37:32.535Z,54.27
2018-03-26T16:40:00.389Z,53.80
2018-03-26T16:42:28.223Z,53.93
2018-03-26T16:44:56.019Z,53.17
2018-03-26T16:47:23.836Z,51.90
2018-03-26T16:49:51.596Z,53.20
2018-03-26T16:52:19.367Z,53.17
2018-03-26T16:54:47.128Z,53.53
2018-03-26T16:57:14.942Z,55.93
2018-03-26T16:59:42.698Z,54.17
2018-03-26T17:02:10.451Z,54.30
2018-03-26T17:04:38.260Z,53.83
2018-03-26T17:07:06.794Z,55.23
2018-03-26T17:09:34.570Z,52.43
2018-03-26T17:12:02.378Z,55.23
2018-03-26T17:14:30.921Z,54.20
2018-03-26T17:16:58.731Z,57.57
2018-03-26T17:19:26.516Z,56.90
2018-03-26T17:21:54.416Z,60.30
2018-03-26T17:24:22.204Z,59.70
2018-03-26T17:26:50.767Z,59.87
2018-03-26T17:29:18.585Z,61.60
2018-03-26T17:31:46.507Z,62.83
2018-03-26T17:34:14.414Z,61.17
2018-03-26T17:36:42.317Z,62.47
2018-03-26T17:39:10.171Z,62.37
2018-03-26T17:41:38.014Z,65.43
2018-03-26T17:44:05.844Z,64.22
2018-03-26T17:46:34.429Z,62.97
2018-03-26T17:49:03.025Z,66.32
2018-03-26T17:51:31.785Z,65.15
2018-03-26T17:53:59.561Z,64.87
2018-03-26T17:56:28.234Z,64.28
2018-03-26T17:58:56.951Z,63.30
2018-03-26T18:01:25.592Z,68.20
2018-03-26T18:03:53.415Z,68.68
2018-03-26T18:06:21.250Z,65.40
2018-03-26T18:08:49.034Z,66.70
2018-03-26T18:11:16.820Z,65.35
2018-03-26T18:13:44.579Z,66.12
2018-03-26T18:16:12.413Z,64.55
2018-03-26T18:18:40.980Z,65.05
2018-03-26T18:21:08.835Z,67.25
2018-03-26T18:23:36.688Z,73.87
2018-03-26T18:26:04.504Z,65.53
2018-03-26T18:28:32.295Z,65.78
2018-03-26T18:31:00.097Z,66.35
2018-03-26T18:33:27.922Z,67.47
2018-03-26T18:35:55.727Z,70.97
2018-03-26T18:38:23.808Z,68.10
2018-03-26T18:40:52.693Z,67.50
2018-03-26T18:43:20.474Z,69.30
2018-03-26T18:45:49.099Z,69.35
2018-03-26T18:48:16.925Z,67.50
2018-03-26T18:50:45.477Z,66.68
2018-03-26T18:53:13.453Z,64.12
2018-03-26T18:55:41.251Z,64.87
2018-03-26T18:58:09.077Z,69.87
2018-03-26T19:00:36.853Z,68.82
2018-03-26T19:03:04.647Z,76.12
2018-03-26T19:05:32.509Z,79.05
2018-03-26T19:08:00.266Z,78.72
2018-03-26T19:10:28.847Z,82.82
2018-03-26T19:12:57.394Z,87.30
2018-03-26T19:15:25.187Z,85.40
2018-03-26T19:17:53.744Z,88.22
2018-03-26T19:20:21.568Z,89.35
2018-03-26T19:22:49.362Z,84.97
2018-03-26T19:25:17.178Z,82.28
2018-03-26T19:27:45.104Z,83.93
2018-03-26T19:30:12.896Z,85.38
2018-03-26T19:32:41.449Z,87.68
2018-03-26T19:35:09.404Z,89.10
2018-03-26T19:37:37.212Z,90.18
2018-03-26T19:40:05.874Z,87.62
2018-03-26T19:42:33.732Z,88.12
2018-03-26T19:45:01.555Z,89.72
2018-03-26T19:47:29.323Z,88.85
2018-03-26T19:49:57.175Z,94.00
2018-03-26T19:52:25.047Z,85.90
2018-03-26T19:54:52.959Z,85.82
2018-03-26T19:57:20.954Z,83.78
2018-03-26T19:59:49.922Z,81.78
2018-03-26T20:02:18.070Z,82.00
2018-03-26T20:04:46.198Z,80.43
2018-03-26T20:07:15.059Z,84.00
2018-03-26T20:09:43.139Z,79.53
2018-03-26T20:12:11.271Z,80.18
2018-03-26T20:14:39.335Z,82.05
2018-03-26T20:17:07.355Z,81.85
2018-03-26T20:19:35.372Z,81.47
2018-03-26T20:22:03.391Z,91.55
2018-03-26T20:24:31.329Z,96.15
2018-03-26T20:26:59.223Z,81.50
2018-03-26T20:29:27.166Z,79.03
2018-03-26T20:31:55.120Z,81.55
2018-03-26T20:34:22.979Z,79.35
2018-03-26T20:36:50.863Z,77.60
2018-03-26T20:39:18.836Z,77.62
2018-03-26T20:41:46.703Z,80.38
2018-03-26T20:44:14.572Z,78.70
2018-03-26T20:46:42.394Z,81.90
2018-03-26T20:49:10.199Z,84.80
2018-03-26T20:51:38.074Z,87.78
2018-03-26T20:54:06.044Z,84.05
2018-03-26T20:56:33.865Z,80.30
2018-03-26T20:59:01.712Z,83.85
2018-03-26T21:01:30.257Z,81.53
2018-03-26T21:03:58.084Z,85.30
2018-03-26T21:06:25.938Z,84.62
2018-03-26T21:08:53.753Z,81.15
2018-03-26T21:11:22.438Z,79.93
2018-03-26T21:13:50.307Z,77.45
2018-03-26T21:16:18.169Z,76.68
2018-03-26T21:18:46.053Z,77.40
2018-03-26T21:21:14.720Z,74.10
2018-03-26T21:23:42.689Z,76.93
2018-03-26T21:26:10.657Z,79.20
2018-03-26T21:28:38.583Z,82.05
2018-03-26T21:31:06.491Z,81.15
2018-03-26T21:33:34.460Z,77.40
2018-03-26T21:36:02.329Z,76.95
2018-03-26T21:38:30.191Z,75.80
2018-03-26T21:40:58.162Z,74.55
2018-03-26T21:43:26.026Z,73.03
2018-03-26T21:45:53.895Z,76.12
2018-03-26T21:48:21.862Z,76.22
2018-03-26T21:50:49.730Z,74.25
2018-03-26T21:53:17.695Z,73.70
2018-03-26T21:55:45.769Z,75.60
2018-03-26T21:58:13.635Z,76.80
2018-03-26T22:00:41.599Z,78.47
2018-03-26T22:03:09.375Z,73.80
2018-03-26T22:05:37.138Z,70.93
2018-03-26T22:08:04.924Z,72.72
2018-03-26T22:10:33.453Z,72.35
2018-03-26T22:13:01.247Z,69.53
2018-03-26T22:15:29.015Z,70.57
2018-03-26T22:17:56.850Z,70.47
2018-03-26T22:20:24.607Z,72.35
2018-03-26T22:22:52.354Z,67.80
2018-03-26T22:25:20.134Z,68.35
2018-03-26T22:27:48.087Z,68.43
2018-03-26T22:30:16.024Z,68.78
2018-03-26T22:32:44.568Z,65.75
2018-03-26T22:35:12.352Z,65.45
2018-03-26T22:37:40.138Z,66.53
2018-03-26T22:40:08.652Z,66.03
2018-03-26T22:42:36.452Z,67.20
2018-03-26T22:45:04.282Z,67.85
2018-03-26T22:47:32.181Z,66.50
2018-03-26T22:50:00.046Z,67.55
2018-03-26T22:52:27.809Z,67.47
2018-03-26T22:54:55.677Z,67.20
2018-03-26T22:57:23.644Z,67.78
2018-03-26T22:59:51.520Z,66.57
2018-03-26T23:02:20.912Z,67.90
2018-03-26T23:04:48.778Z,69.57
2018-03-26T23:07:16.643Z,69.70
2018-03-26T23:09:44.485Z,69.68
2018-03-26T23:12:12.370Z,68.78
2018-03-26T23:14:40.345Z,68.30
2018-03-26T23:17:08.209Z,68.47
2018-03-26T23:19:36.077Z,68.72
2018-03-26T23:22:03.946Z,68.80
2018-03-26T23:24:31.911Z,70.05
2018-03-26T23:26:59.730Z,70.20
2018-03-26T23:29:27.671Z,68.45
2018-03-26T23:31:56.331Z,70.47
2018-03-26T23:34:24.194Z,69.40
2018-03-26T23:36:52.057Z,70.18
2018-03-26T23:39:19.923Z,69.37
2018-03-26T23:41:47.794Z,68.85
2018-03-26T23:44:15.616Z,70.12
2018-03-26T23:46:43.366Z,68.55
2018-03-26T23:49:11.197Z,69.00
2018-03-26T23:51:39.049Z,66.60
2018-03-26T23:54:07.224Z,66.82
2018-03-26T23:56:35.193Z,68.75
2018-03-26T23:59:03.056Z,66.30
